sensor_id;sensor_type;location;lat;lon;timestamp;P1;durP1;ratioP1;P2;durP2;ratioP2
20415;SDS011;10367;52.202;5.996;2023-12-04T00:02:12;35.73;;;16.43;;
20415;SDS011;10367;52.202;5.996;2023-12-04T00:04:42;34.60;;;17.27;;
20415;SDS011;10367;52.202;5.996;2023-12-04T00:07:11;34.77;;;15.53;;
20415;SDS011;10367;52.202;5.996;2023-12-04T00:09:40;30.67;;;15.77;;
20415;SDS011;10367;52.202;5.996;2023-12-04T00:12:08;32.00;;;15.40;;
20415;SDS011;10367;52.202;5.996;2023-12-04T00:14:37;38.00;;;16.97;;
20415;SDS011;10367;52.202;5.996;2023-12-04T00:17:07;33.23;;;15.43;;
20415;SDS011;10367;52.202;5.996;2023-12-04T00:19:36;35.83;;;15.93;;
20415;SDS011;10367;52.202;5.996;2023-12-04T00:22:05;33.07;;;15.83;;
20415;SDS011;10367;52.202;5.996;2023-12-04T00:24:33;36.93;;;16.77;;
20415;SDS011;10367;52.202;5.996;2023-12-04T00:27:02;40.67;;;15.30;;
20415;SDS011;10367;52.202;5.996;2023-12-04T00:29:31;43.97;;;17.67;;
20415;SDS011;10367;52.202;5.996;2023-12-04T00:32:00;39.87;;;18.37;;
20415;SDS011;10367;52.202;5.996;2023-12-04T00:34:30;37.87;;;18.33;;
20415;SDS011;10367;52.202;5.996;2023-12-04T00:36:59;37.70;;;16.57;;
20415;SDS011;10367;52.202;5.996;2023-12-04T00:39:28;38.07;;;17.03;;
20415;SDS011;10367;52.202;5.996;2023-12-04T00:41:56;37.47;;;18.23;;
20415;SDS011;10367;52.202;5.996;2023-12-04T00:44:25;38.47;;;17.60;;
20415;SDS011;10367;52.202;5.996;2023-12-04T00:46:54;38.43;;;16.37;;
20415;SDS011;10367;52.202;5.996;2023-12-04T00:49:22;37.03;;;16.70;;
20415;SDS011;10367;52.202;5.996;2023-12-04T00:51:52;34.30;;;15.93;;
20415;SDS011;10367;52.202;5.996;2023-12-04T00:54:21;35.13;;;16.90;;
20415;SDS011;10367;52.202;5.996;2023-12-04T00:56:50;40.77;;;18.57;;
20415;SDS011;10367;52.202;5.996;2023-12-04T00:59:19;36.07;;;18.10;;
20415;SDS011;10367;52.202;5.996;2023-12-04T01:01:48;38.40;;;17.47;;
20415;SDS011;10367;52.202;5.996;2023-12-04T01:04:16;34.53;;;15.77;;
20415;SDS011;10367;52.202;5.996;2023-12-04T01:06:45;39.63;;;18.30;;
20415;SDS011;10367;52.202;5.996;2023-12-04T01:09:15;36.43;;;17.23;;
20415;SDS011;10367;52.202;5.996;2023-12-04T01:11:44;33.40;;;15.90;;
20415;SDS011;10367;52.202;5.996;2023-12-04T01:14:13;31.80;;;15.97;;
20415;SDS011;10367;52.202;5.996;2023-12-04T01:16:41;39.73;;;17.60;;
20415;SDS011;10367;52.202;5.996;2023-12-04T01:19:10;37.27;;;17.07;;
20415;SDS011;10367;52.202;5.996;2023-12-04T01:21:39;33.93;;;16.30;;
20415;SDS011;10367;52.202;5.996;2023-12-04T01:24:08;36.77;;;17.00;;
20415;SDS011;10367;52.202;5.996;2023-12-04T01:26:38;34.40;;;16.53;;
20415;SDS011;10367;52.202;5.996;2023-12-04T01:29:07;34.07;;;15.73;;
20415;SDS011;10367;52.202;5.996;2023-12-04T01:31:36;34.77;;;15.93;;
20415;SDS011;10367;52.202;5.996;2023-12-04T01:34:04;33.73;;;15.93;;
20415;SDS011;10367;52.202;5.996;2023-12-04T01:36:33;39.17;;;17.30;;
20415;SDS011;10367;52.202;5.996;2023-12-04T01:39:02;35.40;;;16.53;;
20415;SDS011;10367;52.202;5.996;2023-12-04T01:41:31;31.60;;;14.70;;
20415;SDS011;10367;52.202;5.996;2023-12-04T01:44:01;40.60;;;18.20;;
20415;SDS011;10367;52.202;5.996;2023-12-04T01:46:30;33.00;;;15.80;;
20415;SDS011;10367;52.202;5.996;2023-12-04T01:48:59;43.00;;;18.57;;
20415;SDS011;10367;52.202;5.996;2023-12-04T01:51:30;29.77;;;15.63;;
20415;SDS011;10367;52.202;5.996;2023-12-04T01:53:59;34.73;;;15.50;;
20415;SDS011;10367;52.202;5.996;2023-12-04T01:56:30;33.30;;;16.30;;
20415;SDS011;10367;52.202;5.996;2023-12-04T01:58:59;35.10;;;16.20;;
20415;SDS011;10367;52.202;5.996;2023-12-04T02:01:30;37.13;;;16.53;;
20415;SDS011;10367;52.202;5.996;2023-12-04T02:03:59;34.70;;;16.23;;
20415;SDS011;10367;52.202;5.996;2023-12-04T02:06:29;33.87;;;16.53;;
20415;SDS011;10367;52.202;5.996;2023-12-04T02:08:59;37.00;;;17.47;;
20415;SDS011;10367;52.202;5.996;2023-12-04T02:11:28;41.27;;;17.23;;
20415;SDS011;10367;52.202;5.996;2023-12-04T02:13:56;38.27;;;17.37;;
20415;SDS011;10367;52.202;5.996;2023-12-04T02:16:27;36.03;;;15.33;;
20415;SDS011;10367;52.202;5.996;2023-12-04T02:18:58;39.40;;;16.90;;
20415;SDS011;10367;52.202;5.996;2023-12-04T02:21:27;33.83;;;15.13;;
20415;SDS011;10367;52.202;5.996;2023-12-04T02:23:57;34.40;;;16.13;;
20415;SDS011;10367;52.202;5.996;2023-12-04T02:26:27;26.73;;;13.63;;
20415;SDS011;10367;52.202;5.996;2023-12-04T02:29:01;31.93;;;14.57;;
20415;SDS011;10367;52.202;5.996;2023-12-04T02:31:39;39.07;;;15.87;;
20415;SDS011;10367;52.202;5.996;2023-12-04T02:34:09;36.47;;;15.67;;
20415;SDS011;10367;52.202;5.996;2023-12-04T02:36:41;37.13;;;16.13;;
20415;SDS011;10367;52.202;5.996;2023-12-04T02:39:13;30.53;;;14.20;;
20415;SDS011;10367;52.202;5.996;2023-12-04T02:41:42;33.90;;;15.40;;
20415;SDS011;10367;52.202;5.996;2023-12-04T02:44:10;31.43;;;15.03;;
20415;SDS011;10367;52.202;5.996;2023-12-04T02:46:39;38.20;;;14.93;;
20415;SDS011;10367;52.202;5.996;2023-12-04T02:49:08;37.83;;;16.53;;
20415;SDS011;10367;52.202;5.996;2023-12-04T02:51:37;27.63;;;14.53;;
20415;SDS011;10367;52.202;5.996;2023-12-04T02:54:08;35.43;;;16.23;;
20415;SDS011;10367;52.202;5.996;2023-12-04T02:56:38;27.60;;;13.27;;
20415;SDS011;10367;52.202;5.996;2023-12-04T02:59:07;34.93;;;14.90;;
20415;SDS011;10367;52.202;5.996;2023-12-04T03:01:36;29.37;;;15.17;;
20415;SDS011;10367;52.202;5.996;2023-12-04T03:04:05;34.57;;;15.20;;
20415;SDS011;10367;52.202;5.996;2023-12-04T03:06:33;34.00;;;15.23;;
20415;SDS011;10367;52.202;5.996;2023-12-04T03:09:03;38.07;;;17.17;;
20415;SDS011;10367;52.202;5.996;2023-12-04T03:11:32;34.83;;;15.27;;
20415;SDS011;10367;52.202;5.996;2023-12-04T03:14:02;35.57;;;17.47;;
20415;SDS011;10367;52.202;5.996;2023-12-04T03:16:30;31.83;;;15.97;;
20415;SDS011;10367;52.202;5.996;2023-12-04T03:18:59;32.00;;;16.43;;
20415;SDS011;10367;52.202;5.996;2023-12-04T03:21:28;31.40;;;14.80;;
20415;SDS011;10367;52.202;5.996;2023-12-04T03:23:57;30.37;;;16.30;;
20415;SDS011;10367;52.202;5.996;2023-12-04T03:26:26;32.20;;;13.93;;
20415;SDS011;10367;52.202;5.996;2023-12-04T03:28:55;30.10;;;14.57;;
20415;SDS011;10367;52.202;5.996;2023-12-04T03:31:25;34.47;;;13.43;;
20415;SDS011;10367;52.202;5.996;2023-12-04T03:33:55;28.07;;;13.63;;
20415;SDS011;10367;52.202;5.996;2023-12-04T03:36:24;30.57;;;14.13;;
20415;SDS011;10367;52.202;5.996;2023-12-04T03:38:52;34.80;;;16.07;;
20415;SDS011;10367;52.202;5.996;2023-12-04T03:41:21;32.53;;;14.97;;
20415;SDS011;10367;52.202;5.996;2023-12-04T03:43:51;33.20;;;14.93;;
20415;SDS011;10367;52.202;5.996;2023-12-04T03:46:19;24.90;;;13.80;;
20415;SDS011;10367;52.202;5.996;2023-12-04T03:48:52;33.93;;;13.70;;
20415;SDS011;10367;52.202;5.996;2023-12-04T03:51:21;25.00;;;14.30;;
20415;SDS011;10367;52.202;5.996;2023-12-04T03:53:50;22.13;;;12.37;;
20415;SDS011;10367;52.202;5.996;2023-12-04T03:56:19;27.40;;;13.83;;
20415;SDS011;10367;52.202;5.996;2023-12-04T03:58:47;31.20;;;14.53;;
20415;SDS011;10367;52.202;5.996;2023-12-04T04:01:16;29.43;;;13.37;;
20415;SDS011;10367;52.202;5.996;2023-12-04T04:03:45;29.30;;;14.60;;
20415;SDS011;10367;52.202;5.996;2023-12-04T04:06:15;23.63;;;12.10;;
20415;SDS011;10367;52.202;5.996;2023-12-04T04:08:44;31.40;;;14.27;;
20415;SDS011;10367;52.202;5.996;2023-12-04T04:11:13;30.97;;;14.20;;
20415;SDS011;10367;52.202;5.996;2023-12-04T04:13:41;28.07;;;13.77;;
20415;SDS011;10367;52.202;5.996;2023-12-04T04:16:12;24.20;;;13.30;;
20415;SDS011;10367;52.202;5.996;2023-12-04T04:18:42;27.93;;;13.90;;
20415;SDS011;10367;52.202;5.996;2023-12-04T04:21:11;27.30;;;13.77;;
20415;SDS011;10367;52.202;5.996;2023-12-04T04:23:41;26.27;;;13.67;;
20415;SDS011;10367;52.202;5.996;2023-12-04T04:26:10;24.80;;;12.50;;
20415;SDS011;10367;52.202;5.996;2023-12-04T04:28:39;23.77;;;12.70;;
20415;SDS011;10367;52.202;5.996;2023-12-04T04:31:08;23.50;;;12.63;;
20415;SDS011;10367;52.202;5.996;2023-12-04T04:33:37;27.90;;;13.87;;
20415;SDS011;10367;52.202;5.996;2023-12-04T04:36:06;26.57;;;13.27;;
20415;SDS011;10367;52.202;5.996;2023-12-04T04:38:38;25.60;;;14.00;;
20415;SDS011;10367;52.202;5.996;2023-12-04T04:41:13;31.97;;;14.67;;
20415;SDS011;10367;52.202;5.996;2023-12-04T04:43:43;25.80;;;12.93;;
20415;SDS011;10367;52.202;5.996;2023-12-04T04:46:11;24.37;;;11.87;;
20415;SDS011;10367;52.202;5.996;2023-12-04T04:48:40;28.63;;;13.33;;
20415;SDS011;10367;52.202;5.996;2023-12-04T04:51:09;24.87;;;12.63;;
20415;SDS011;10367;52.202;5.996;2023-12-04T04:53:38;22.93;;;11.70;;
20415;SDS011;10367;52.202;5.996;2023-12-04T04:56:07;31.17;;;13.03;;
20415;SDS011;10367;52.202;5.996;2023-12-04T04:58:38;23.23;;;12.87;;
20415;SDS011;10367;52.202;5.996;2023-12-04T05:01:07;23.77;;;12.57;;
20415;SDS011;10367;52.202;5.996;2023-12-04T05:03:36;26.03;;;13.07;;
20415;SDS011;10367;52.202;5.996;2023-12-04T05:06:05;25.43;;;13.40;;
20415;SDS011;10367;52.202;5.996;2023-12-04T05:08:35;23.80;;;12.70;;
20415;SDS011;10367;52.202;5.996;2023-12-04T05:11:03;27.13;;;13.03;;
20415;SDS011;10367;52.202;5.996;2023-12-04T05:13:32;23.53;;;12.10;;
20415;SDS011;10367;52.202;5.996;2023-12-04T05:16:03;27.43;;;13.37;;
20415;SDS011;10367;52.202;5.996;2023-12-04T05:18:33;22.67;;;11.80;;
20415;SDS011;10367;52.202;5.996;2023-12-04T05:21:02;28.70;;;13.03;;
20415;SDS011;10367;52.202;5.996;2023-12-04T05:23:30;27.27;;;12.30;;
20415;SDS011;10367;52.202;5.996;2023-12-04T05:25:59;25.70;;;13.63;;
20415;SDS011;10367;52.202;5.996;2023-12-04T05:28:28;23.53;;;12.63;;
20415;SDS011;10367;52.202;5.996;2023-12-04T05:30:57;32.83;;;15.47;;
20415;SDS011;10367;52.202;5.996;2023-12-04T05:33:28;24.40;;;13.20;;
20415;SDS011;10367;52.202;5.996;2023-12-04T05:35:57;29.17;;;15.10;;
20415;SDS011;10367;52.202;5.996;2023-12-04T05:38:26;32.60;;;13.53;;
20415;SDS011;10367;52.202;5.996;2023-12-04T05:40:54;24.40;;;12.97;;
20415;SDS011;10367;52.202;5.996;2023-12-04T05:43:23;24.87;;;13.20;;
20415;SDS011;10367;52.202;5.996;2023-12-04T05:45:52;20.23;;;11.43;;
20415;SDS011;10367;52.202;5.996;2023-12-04T05:48:20;20.83;;;11.70;;
20415;SDS011;10367;52.202;5.996;2023-12-04T05:50:50;26.63;;;12.80;;
20415;SDS011;10367;52.202;5.996;2023-12-04T05:53:19;23.63;;;11.83;;
20415;SDS011;10367;52.202;5.996;2023-12-04T05:55:48;20.10;;;11.73;;
20415;SDS011;10367;52.202;5.996;2023-12-04T05:58:16;23.17;;;12.00;;
20415;SDS011;10367;52.202;5.996;2023-12-04T06:00:45;21.87;;;11.20;;
20415;SDS011;10367;52.202;5.996;2023-12-04T06:03:14;19.87;;;11.50;;
20415;SDS011;10367;52.202;5.996;2023-12-04T06:05:43;23.37;;;12.93;;
20415;SDS011;10367;52.202;5.996;2023-12-04T06:08:13;28.17;;;14.17;;
20415;SDS011;10367;52.202;5.996;2023-12-04T06:10:42;17.20;;;10.30;;
20415;SDS011;10367;52.202;5.996;2023-12-04T06:13:11;25.73;;;13.53;;
20415;SDS011;10367;52.202;5.996;2023-12-04T06:15:40;22.67;;;11.97;;
20415;SDS011;10367;52.202;5.996;2023-12-04T06:18:09;28.20;;;13.27;;
20415;SDS011;10367;52.202;5.996;2023-12-04T06:20:38;23.00;;;11.67;;
20415;SDS011;10367;52.202;5.996;2023-12-04T06:23:07;23.10;;;11.87;;
20415;SDS011;10367;52.202;5.996;2023-12-04T06:25:37;25.40;;;12.80;;
20415;SDS011;10367;52.202;5.996;2023-12-04T06:28:07;26.00;;;12.47;;
20415;SDS011;10367;52.202;5.996;2023-12-04T06:30:37;27.07;;;12.67;;
20415;SDS011;10367;52.202;5.996;2023-12-04T06:33:07;23.40;;;12.80;;
20415;SDS011;10367;52.202;5.996;2023-12-04T06:35:36;22.07;;;10.87;;
20415;SDS011;10367;52.202;5.996;2023-12-04T06:38:06;28.00;;;14.40;;
20415;SDS011;10367;52.202;5.996;2023-12-04T06:40:35;24.17;;;11.87;;
20415;SDS011;10367;52.202;5.996;2023-12-04T06:43:06;25.10;;;12.63;;
20415;SDS011;10367;52.202;5.996;2023-12-04T06:45:35;20.47;;;11.13;;
20415;SDS011;10367;52.202;5.996;2023-12-04T06:48:04;23.63;;;12.63;;
20415;SDS011;10367;52.202;5.996;2023-12-04T06:50:35;21.27;;;11.73;;
20415;SDS011;10367;52.202;5.996;2023-12-04T06:53:04;24.70;;;12.43;;
20415;SDS011;10367;52.202;5.996;2023-12-04T06:55:33;24.67;;;12.83;;
20415;SDS011;10367;52.202;5.996;2023-12-04T06:58:03;23.67;;;12.23;;
20415;SDS011;10367;52.202;5.996;2023-12-04T07:00:31;19.97;;;10.27;;
20415;SDS011;10367;52.202;5.996;2023-12-04T07:03:00;23.43;;;12.87;;
20415;SDS011;10367;52.202;5.996;2023-12-04T07:05:29;23.17;;;10.53;;
20415;SDS011;10367;52.202;5.996;2023-12-04T07:07:58;28.90;;;13.40;;
20415;SDS011;10367;52.202;5.996;2023-12-04T07:10:27;24.23;;;11.80;;
20415;SDS011;10367;52.202;5.996;2023-12-04T07:12:59;29.23;;;14.83;;
20415;SDS011;10367;52.202;5.996;2023-12-04T07:15:29;20.00;;;11.00;;
20415;SDS011;10367;52.202;5.996;2023-12-04T07:17:58;18.07;;;10.93;;
20415;SDS011;10367;52.202;5.996;2023-12-04T07:20:27;22.17;;;11.80;;
20415;SDS011;10367;52.202;5.996;2023-12-04T07:22:56;24.40;;;12.50;;
20415;SDS011;10367;52.202;5.996;2023-12-04T07:25:25;20.77;;;11.23;;
20415;SDS011;10367;52.202;5.996;2023-12-04T07:27:54;26.57;;;11.87;;
20415;SDS011;10367;52.202;5.996;2023-12-04T07:30:24;25.17;;;12.50;;
20415;SDS011;10367;52.202;5.996;2023-12-04T07:32:55;24.27;;;12.07;;
20415;SDS011;10367;52.202;5.996;2023-12-04T07:35:25;22.27;;;11.07;;
20415;SDS011;10367;52.202;5.996;2023-12-04T07:37:56;22.87;;;12.13;;
20415;SDS011;10367;52.202;5.996;2023-12-04T07:40:24;19.33;;;10.40;;
20415;SDS011;10367;52.202;5.996;2023-12-04T07:42:53;21.87;;;12.00;;
20415;SDS011;10367;52.202;5.996;2023-12-04T07:45:22;21.57;;;11.67;;
20415;SDS011;10367;52.202;5.996;2023-12-04T07:47:51;17.43;;;10.43;;
20415;SDS011;10367;52.202;5.996;2023-12-04T07:50:21;19.90;;;11.03;;
20415;SDS011;10367;52.202;5.996;2023-12-04T07:52:51;21.13;;;10.23;;
20415;SDS011;10367;52.202;5.996;2023-12-04T07:55:20;19.93;;;11.23;;
20415;SDS011;10367;52.202;5.996;2023-12-04T07:57:49;19.30;;;10.33;;
20415;SDS011;10367;52.202;5.996;2023-12-04T08:00:18;20.87;;;11.50;;
20415;SDS011;10367;52.202;5.996;2023-12-04T08:02:49;26.80;;;11.97;;
20415;SDS011;10367;52.202;5.996;2023-12-04T08:05:18;22.43;;;11.77;;
20415;SDS011;10367;52.202;5.996;2023-12-04T08:07:48;18.23;;;11.00;;
20415;SDS011;10367;52.202;5.996;2023-12-04T08:10:17;22.80;;;10.90;;
20415;SDS011;10367;52.202;5.996;2023-12-04T08:12:46;18.70;;;10.43;;
20415;SDS011;10367;52.202;5.996;2023-12-04T08:15:15;22.10;;;11.90;;
20415;SDS011;10367;52.202;5.996;2023-12-04T08:17:44;23.23;;;11.43;;
20415;SDS011;10367;52.202;5.996;2023-12-04T08:20:13;22.97;;;12.27;;
20415;SDS011;10367;52.202;5.996;2023-12-04T08:22:54;18.53;;;11.10;;
20415;SDS011;10367;52.202;5.996;2023-12-04T08:25:23;21.23;;;10.83;;
20415;SDS011;10367;52.202;5.996;2023-12-04T08:27:51;21.70;;;11.47;;
20415;SDS011;10367;52.202;5.996;2023-12-04T08:30:20;19.30;;;10.67;;
20415;SDS011;10367;52.202;5.996;2023-12-04T08:32:49;22.27;;;11.33;;
20415;SDS011;10367;52.202;5.996;2023-12-04T08:35:18;20.77;;;11.10;;
20415;SDS011;10367;52.202;5.996;2023-12-04T08:37:47;16.50;;;9.97;;
20415;SDS011;10367;52.202;5.996;2023-12-04T08:40:18;22.60;;;11.57;;
20415;SDS011;10367;52.202;5.996;2023-12-04T08:42:47;19.17;;;10.90;;
20415;SDS011;10367;52.202;5.996;2023-12-04T08:45:16;19.60;;;10.07;;
20415;SDS011;10367;52.202;5.996;2023-12-04T08:47:46;20.80;;;11.67;;
20415;SDS011;10367;52.202;5.996;2023-12-04T08:50:16;22.63;;;12.80;;
20415;SDS011;10367;52.202;5.996;2023-12-04T08:52:44;20.80;;;11.20;;
20415;SDS011;10367;52.202;5.996;2023-12-04T08:55:13;22.03;;;11.50;;
20415;SDS011;10367;52.202;5.996;2023-12-04T08:57:43;21.07;;;11.67;;
20415;SDS011;10367;52.202;5.996;2023-12-04T09:00:13;22.60;;;12.37;;
20415;SDS011;10367;52.202;5.996;2023-12-04T09:02:42;20.97;;;11.47;;
20415;SDS011;10367;52.202;5.996;2023-12-04T09:05:20;26.23;;;11.60;;
20415;SDS011;10367;52.202;5.996;2023-12-04T09:07:49;20.93;;;11.57;;
20415;SDS011;10367;52.202;5.996;2023-12-04T09:10:37;20.33;;;11.43;;
20415;SDS011;10367;52.202;5.996;2023-12-04T09:13:27;18.30;;;10.43;;
20415;SDS011;10367;52.202;5.996;2023-12-04T09:15:57;18.00;;;10.10;;
20415;SDS011;10367;52.202;5.996;2023-12-04T09:18:26;23.47;;;12.70;;
20415;SDS011;10367;52.202;5.996;2023-12-04T09:20:55;20.63;;;12.13;;
20415;SDS011;10367;52.202;5.996;2023-12-04T09:23:24;21.80;;;11.63;;
20415;SDS011;10367;52.202;5.996;2023-12-04T09:25:54;25.50;;;13.00;;
20415;SDS011;10367;52.202;5.996;2023-12-04T09:28:23;21.43;;;10.47;;
20415;SDS011;10367;52.202;5.996;2023-12-04T09:30:53;17.87;;;10.23;;
20415;SDS011;10367;52.202;5.996;2023-12-04T09:33:22;21.30;;;11.67;;
20415;SDS011;10367;52.202;5.996;2023-12-04T09:35:51;21.27;;;11.77;;
20415;SDS011;10367;52.202;5.996;2023-12-04T09:38:19;21.37;;;11.43;;
20415;SDS011;10367;52.202;5.996;2023-12-04T09:40:48;20.93;;;11.80;;
20415;SDS011;10367;52.202;5.996;2023-12-04T09:43:20;21.50;;;12.10;;
20415;SDS011;10367;52.202;5.996;2023-12-04T09:45:49;21.00;;;11.57;;
20415;SDS011;10367;52.202;5.996;2023-12-04T09:48:20;22.57;;;12.90;;
20415;SDS011;10367;52.202;5.996;2023-12-04T09:50:50;17.87;;;10.77;;
20415;SDS011;10367;52.202;5.996;2023-12-04T09:53:20;21.50;;;12.33;;
20415;SDS011;10367;52.202;5.996;2023-12-04T09:55:49;24.93;;;12.97;;
20415;SDS011;10367;52.202;5.996;2023-12-04T09:58:18;20.33;;;12.07;;
20415;SDS011;10367;52.202;5.996;2023-12-04T10:00:48;21.70;;;11.90;;
20415;SDS011;10367;52.202;5.996;2023-12-04T10:03:17;23.40;;;12.77;;
20415;SDS011;10367;52.202;5.996;2023-12-04T10:05:47;18.10;;;11.03;;
20415;SDS011;10367;52.202;5.996;2023-12-04T10:08:17;26.23;;;13.93;;
20415;SDS011;10367;52.202;5.996;2023-12-04T10:10:46;18.27;;;10.77;;
20415;SDS011;10367;52.202;5.996;2023-12-04T10:13:15;19.90;;;12.13;;
20415;SDS011;10367;52.202;5.996;2023-12-04T10:16:03;27.77;;;13.87;;
20415;SDS011;10367;52.202;5.996;2023-12-04T10:18:33;20.10;;;11.07;;
20415;SDS011;10367;52.202;5.996;2023-12-04T10:21:03;26.77;;;14.43;;
20415;SDS011;10367;52.202;5.996;2023-12-04T10:23:42;19.53;;;12.07;;
20415;SDS011;10367;52.202;5.996;2023-12-04T10:26:14;20.80;;;12.43;;
20415;SDS011;10367;52.202;5.996;2023-12-04T10:28:58;24.50;;;12.70;;
20415;SDS011;10367;52.202;5.996;2023-12-04T10:31:31;26.40;;;13.93;;
20415;SDS011;10367;52.202;5.996;2023-12-04T10:34:01;27.10;;;14.63;;
20415;SDS011;10367;52.202;5.996;2023-12-04T10:36:33;25.03;;;13.67;;
20415;SDS011;10367;52.202;5.996;2023-12-04T10:39:01;41.03;;;15.83;;
20415;SDS011;10367;52.202;5.996;2023-12-04T10:41:31;24.33;;;13.83;;
20415;SDS011;10367;52.202;5.996;2023-12-04T10:44:00;26.90;;;13.70;;
20415;SDS011;10367;52.202;5.996;2023-12-04T10:46:36;27.37;;;13.87;;
20415;SDS011;10367;52.202;5.996;2023-12-04T10:49:07;26.23;;;14.20;;
20415;SDS011;10367;52.202;5.996;2023-12-04T10:51:40;25.00;;;13.70;;
20415;SDS011;10367;52.202;5.996;2023-12-04T10:54:09;23.23;;;13.50;;
20415;SDS011;10367;52.202;5.996;2023-12-04T10:56:40;22.17;;;13.00;;
20415;SDS011;10367;52.202;5.996;2023-12-04T10:59:10;26.20;;;14.23;;
20415;SDS011;10367;52.202;5.996;2023-12-04T11:01:42;24.60;;;14.03;;
20415;SDS011;10367;52.202;5.996;2023-12-04T11:04:15;26.00;;;14.37;;
20415;SDS011;10367;52.202;5.996;2023-12-04T11:06:49;24.70;;;13.77;;
20415;SDS011;10367;52.202;5.996;2023-12-04T11:09:21;22.27;;;13.03;;
20415;SDS011;10367;52.202;5.996;2023-12-04T11:11:55;24.40;;;14.10;;
20415;SDS011;10367;52.202;5.996;2023-12-04T11:14:28;31.00;;;15.87;;
20415;SDS011;10367;52.202;5.996;2023-12-04T11:17:03;26.73;;;13.50;;
20415;SDS011;10367;52.202;5.996;2023-12-04T11:19:35;29.00;;;15.47;;
20415;SDS011;10367;52.202;5.996;2023-12-04T11:22:14;23.93;;;14.23;;
20415;SDS011;10367;52.202;5.996;2023-12-04T11:24:47;22.40;;;13.73;;
20415;SDS011;10367;52.202;5.996;2023-12-04T11:27:16;19.83;;;12.30;;
20415;SDS011;10367;52.202;5.996;2023-12-04T11:29:46;23.93;;;13.97;;
20415;SDS011;10367;52.202;5.996;2023-12-04T11:32:16;23.77;;;13.73;;
20415;SDS011;10367;52.202;5.996;2023-12-04T11:34:48;25.00;;;13.17;;
20415;SDS011;10367;52.202;5.996;2023-12-04T11:37:20;22.00;;;12.47;;
20415;SDS011;10367;52.202;5.996;2023-12-04T11:39:50;22.23;;;12.73;;
20415;SDS011;10367;52.202;5.996;2023-12-04T11:42:19;25.30;;;13.70;;
20415;SDS011;10367;52.202;5.996;2023-12-04T11:44:55;21.07;;;13.03;;
20415;SDS011;10367;52.202;5.996;2023-12-04T11:47:27;21.93;;;12.63;;
20415;SDS011;10367;52.202;5.996;2023-12-04T11:49:57;20.30;;;12.03;;
20415;SDS011;10367;52.202;5.996;2023-12-04T11:52:33;20.77;;;12.90;;
20415;SDS011;10367;52.202;5.996;2023-12-04T11:55:03;23.20;;;14.10;;
20415;SDS011;10367;52.202;5.996;2023-12-04T11:57:34;23.47;;;14.13;;
20415;SDS011;10367;52.202;5.996;2023-12-04T12:00:07;20.53;;;12.63;;
20415;SDS011;10367;52.202;5.996;2023-12-04T12:02:38;19.53;;;12.23;;
20415;SDS011;10367;52.202;5.996;2023-12-04T12:05:28;25.47;;;14.13;;
20415;SDS011;10367;52.202;5.996;2023-12-04T12:08:02;20.07;;;12.33;;
20415;SDS011;10367;52.202;5.996;2023-12-04T12:10:31;21.20;;;12.70;;
20415;SDS011;10367;52.202;5.996;2023-12-04T12:13:00;20.80;;;13.30;;
20415;SDS011;10367;52.202;5.996;2023-12-04T12:15:31;20.80;;;12.80;;
20415;SDS011;10367;52.202;5.996;2023-12-04T12:18:01;19.57;;;11.50;;
20415;SDS011;10367;52.202;5.996;2023-12-04T12:20:32;23.37;;;14.30;;
20415;SDS011;10367;52.202;5.996;2023-12-04T12:23:02;22.50;;;12.67;;
20415;SDS011;10367;52.202;5.996;2023-12-04T12:25:31;20.70;;;13.10;;
20415;SDS011;10367;52.202;5.996;2023-12-04T12:28:01;21.67;;;11.83;;
20415;SDS011;10367;52.202;5.996;2023-12-04T12:30:30;24.00;;;13.07;;
20415;SDS011;10367;52.202;5.996;2023-12-04T12:33:00;23.23;;;13.57;;
20415;SDS011;10367;52.202;5.996;2023-12-04T12:35:29;19.20;;;12.00;;
20415;SDS011;10367;52.202;5.996;2023-12-04T12:37:58;20.27;;;11.73;;
20415;SDS011;10367;52.202;5.996;2023-12-04T12:40:29;21.83;;;11.97;;
20415;SDS011;10367;52.202;5.996;2023-12-04T12:43:04;20.63;;;12.53;;
20415;SDS011;10367;52.202;5.996;2023-12-04T12:45:40;22.20;;;12.67;;
20415;SDS011;10367;52.202;5.996;2023-12-04T12:48:10;18.60;;;11.97;;
20415;SDS011;10367;52.202;5.996;2023-12-04T12:50:41;19.07;;;11.77;;
20415;SDS011;10367;52.202;5.996;2023-12-04T12:53:10;21.53;;;12.10;;
20415;SDS011;10367;52.202;5.996;2023-12-04T12:55:41;16.13;;;9.93;;
20415;SDS011;10367;52.202;5.996;2023-12-04T12:58:10;25.00;;;13.63;;
20415;SDS011;10367;52.202;5.996;2023-12-04T13:00:40;23.70;;;11.13;;
20415;SDS011;10367;52.202;5.996;2023-12-04T13:03:13;17.93;;;11.80;;
20415;SDS011;10367;52.202;5.996;2023-12-04T13:05:43;18.87;;;11.67;;
20415;SDS011;10367;52.202;5.996;2023-12-04T13:08:12;25.30;;;13.43;;
20415;SDS011;10367;52.202;5.996;2023-12-04T13:10:43;20.13;;;11.80;;
20415;SDS011;10367;52.202;5.996;2023-12-04T13:13:12;18.13;;;11.37;;
20415;SDS011;10367;52.202;5.996;2023-12-04T13:15:41;19.87;;;11.70;;
20415;SDS011;10367;52.202;5.996;2023-12-04T13:18:10;23.60;;;14.33;;
20415;SDS011;10367;52.202;5.996;2023-12-04T13:20:39;19.20;;;12.10;;
20415;SDS011;10367;52.202;5.996;2023-12-04T13:23:08;27.20;;;14.03;;
20415;SDS011;10367;52.202;5.996;2023-12-04T13:25:36;20.20;;;11.97;;
20415;SDS011;10367;52.202;5.996;2023-12-04T13:28:07;21.73;;;12.57;;
20415;SDS011;10367;52.202;5.996;2023-12-04T13:30:49;17.17;;;10.97;;
20415;SDS011;10367;52.202;5.996;2023-12-04T13:33:17;19.33;;;12.30;;
20415;SDS011;10367;52.202;5.996;2023-12-04T13:35:46;20.50;;;12.43;;
20415;SDS011;10367;52.202;5.996;2023-12-04T13:38:15;24.03;;;13.50;;
20415;SDS011;10367;52.202;5.996;2023-12-04T13:40:52;21.27;;;13.87;;
20415;SDS011;10367;52.202;5.996;2023-12-04T13:43:36;17.17;;;10.70;;
20415;SDS011;10367;52.202;5.996;2023-12-04T13:46:21;25.10;;;14.00;;
20415;SDS011;10367;52.202;5.996;2023-12-04T13:48:50;19.53;;;12.50;;
20415;SDS011;10367;52.202;5.996;2023-12-04T13:51:19;20.10;;;11.67;;
20415;SDS011;10367;52.202;5.996;2023-12-04T13:53:48;19.17;;;11.53;;
20415;SDS011;10367;52.202;5.996;2023-12-04T13:56:25;19.73;;;12.20;;
20415;SDS011;10367;52.202;5.996;2023-12-04T13:59:10;24.43;;;14.23;;
20415;SDS011;10367;52.202;5.996;2023-12-04T14:01:45;20.07;;;12.67;;
20415;SDS011;10367;52.202;5.996;2023-12-04T14:04:14;25.03;;;14.50;;
20415;SDS011;10367;52.202;5.996;2023-12-04T14:06:43;21.20;;;12.27;;
20415;SDS011;10367;52.202;5.996;2023-12-04T14:09:14;25.87;;;14.87;;
20415;SDS011;10367;52.202;5.996;2023-12-04T14:11:43;17.30;;;11.30;;
20415;SDS011;10367;52.202;5.996;2023-12-04T14:14:13;34.40;;;17.13;;
20415;SDS011;10367;52.202;5.996;2023-12-04T14:16:42;23.27;;;13.47;;
20415;SDS011;10367;52.202;5.996;2023-12-04T14:19:13;21.53;;;13.47;;
20415;SDS011;10367;52.202;5.996;2023-12-04T14:21:44;24.63;;;14.03;;
20415;SDS011;10367;52.202;5.996;2023-12-04T14:24:15;26.23;;;12.77;;
20415;SDS011;10367;52.202;5.996;2023-12-04T14:26:44;21.03;;;12.90;;
20415;SDS011;10367;52.202;5.996;2023-12-04T14:29:15;25.43;;;13.83;;
20415;SDS011;10367;52.202;5.996;2023-12-04T14:31:43;20.47;;;11.63;;
20415;SDS011;10367;52.202;5.996;2023-12-04T14:34:13;27.17;;;13.73;;
20415;SDS011;10367;52.202;5.996;2023-12-04T14:36:42;24.30;;;14.50;;
20415;SDS011;10367;52.202;5.996;2023-12-04T14:39:11;26.23;;;13.53;;